sensor_id;sensor_type;location;lat;lon;timestamp;pressure;altitude;pressure_sealevel;temperature;humidity
61742;BME280;47650;49.848;9.620;2024-03-23T00:52:14;98826.28;;;7.84;100.00
61742;BME280;47650;49.848;9.620;2024-03-23T00:54:41;98806.13;;;7.83;100.00
61742;BME280;47650;49.848;9.620;2024-03-23T00:57:09;98813.00;;;7.94;100.00
61742;BME280;47650;49.848;9.620;2024-03-23T00:59:34;98798.69;;;7.97;100.00
61742;BME280;47650;49.848;9.620;2024-03-23T01:02:00;98740.75;;;7.77;100.00
61742;BME280;47650;49.848;9.620;2024-03-23T01:04:27;98801.06;;;8.18;100.00
61742;BME280;47650;49.848;9.620;2024-03-23T01:06:55;98781.88;;;8.16;100.00
61742;BME280;47650;49.848;9.620;2024-03-23T01:09:21;98758.34;;;8.04;100.00
61742;BME280;47650;49.848;9.620;2024-03-23T01:11:48;98776.69;;;8.24;100.00
61742;BME280;47650;49.848;9.620;2024-03-23T01:14:14;98776.22;;;8.28;100.00
61742;BME280;47650;49.848;9.620;2024-03-23T01:16:46;98766.19;;;8.32;100.00
61742;BME280;47650;49.848;9.620;2024-03-23T01:19:12;98761.22;;;8.29;100.00
61742;BME280;47650;49.848;9.620;2024-03-23T01:21:37;98756.16;;;8.18;100.00
61742;BME280;47650;49.848;9.620;2024-03-23T01:24:02;98753.22;;;8.21;100.00
61742;BME280;47650;49.848;9.620;2024-03-23T01:26:28;98744.78;;;8.17;100.00
61742;BME280;47650;49.848;9.620;2024-03-23T01:28:54;98739.13;;;8.12;100.00
61742;BME280;47650;49.848;9.620;2024-03-23T01:31:22;98726.91;;;7.93;100.00
61742;BME280;47650;49.848;9.620;2024-03-23T01:33:51;98724.25;;;7.93;100.00
61742;BME280;47650;49.848;9.620;2024-03-23T01:36:19;98726.66;;;7.86;100.00
61742;BME280;47650;49.848;9.620;2024-03-23T01:38:45;98729.06;;;7.80;100.00
61742;BME280;47650;49.848;9.620;2024-03-23T01:41:11;98701.53;;;7.64;100.00
61742;BME280;47650;49.848;9.620;2024-03-23T01:43:38;98696.78;;;7.50;100.00
61742;BME280;47650;49.848;9.620;2024-03-23T01:46:03;98708.28;;;7.49;100.00
61742;BME280;47650;49.848;9.620;2024-03-23T01:48:29;98709.56;;;7.45;100.00
61742;BME280;47650;49.848;9.620;2024-03-23T01:50:56;98704.28;;;7.45;100.00
61742;BME280;47650;49.848;9.620;2024-03-23T01:53:22;98713.50;;;7.41;100.00
61742;BME280;47650;49.848;9.620;2024-03-23T01:55:50;98714.59;;;7.38;100.00
61742;BME280;47650;49.848;9.620;2024-03-23T01:58:16;98703.94;;;7.30;100.00
61742;BME280;47650;49.848;9.620;2024-03-23T02:00:42;98708.22;;;7.41;100.00
61742;BME280;47650;49.848;9.620;2024-03-23T02:03:27;98703.47;;;7.44;100.00
61742;BME280;47650;49.848;9.620;2024-03-23T02:05:53;98698.34;;;7.43;100.00
61742;BME280;47650;49.848;9.620;2024-03-23T02:08:21;98681.00;;;7.40;100.00
61742;BME280;47650;49.848;9.620;2024-03-23T02:10:51;98666.97;;;7.40;100.00
61742;BME280;47650;49.848;9.620;2024-03-23T02:13:20;98675.38;;;7.53;100.00
61742;BME280;47650;49.848;9.620;2024-03-23T02:15:48;98670.00;;;7.63;100.00
61742;BME280;47650;49.848;9.620;2024-03-23T02:18:13;98673.94;;;7.77;100.00
61742;BME280;47650;49.848;9.620;2024-03-23T02:20:38;98648.16;;;7.88;100.00
61742;BME280;47650;49.848;9.620;2024-03-23T02:23:05;98636.16;;;7.94;100.00
61742;BME280;47650;49.848;9.620;2024-03-23T02:25:38;98650.91;;;8.23;100.00
61742;BME280;47650;49.848;9.620;2024-03-23T02:28:09;98624.72;;;8.29;100.00
61742;BME280;47650;49.848;9.620;2024-03-23T02:30:36;98649.78;;;8.25;100.00
61742;BME280;47650;49.848;9.620;2024-03-23T02:33:03;98640.88;;;8.26;100.00
61742;BME280;47650;49.848;9.620;2024-03-23T02:35:30;98640.09;;;8.52;100.00
61742;BME280;47650;49.848;9.620;2024-03-23T02:37:55;98625.75;;;8.55;100.00
61742;BME280;47650;49.848;9.620;2024-03-23T02:40:24;98632.06;;;8.70;100.00
61742;BME280;47650;49.848;9.620;2024-03-23T02:42:53;98623.22;;;8.79;100.00
61742;BME280;47650;49.848;9.620;2024-03-23T02:45:21;98586.13;;;8.63;100.00
61742;BME280;47650;49.848;9.620;2024-03-23T02:47:47;98627.59;;;8.97;100.00
61742;BME280;47650;49.848;9.620;2024-03-23T02:50:19;98603.50;;;9.08;100.00
61742;BME280;47650;49.848;9.620;2024-03-23T02:52:46;98584.50;;;9.13;100.00
61742;BME280;47650;49.848;9.620;2024-03-23T02:55:12;98579.56;;;9.18;100.00
61742;BME280;47650;49.848;9.620;2024-03-23T02:57:37;98593.03;;;8.90;100.00
61742;BME280;47650;49.848;9.620;2024-03-23T03:00:03;98603.81;;;8.62;100.00
61742;BME280;47650;49.848;9.620;2024-03-23T03:02:28;98586.28;;;8.35;100.00
61742;BME280;47650;49.848;9.620;2024-03-23T03:04:54;98583.19;;;8.66;100.00
61742;BME280;47650;49.848;9.620;2024-03-23T03:07:19;98581.91;;;8.78;100.00
61742;BME280;47650;49.848;9.620;2024-03-23T03:09:45;98574.38;;;8.92;100.00
61742;BME280;47650;49.848;9.620;2024-03-23T03:12:12;98554.47;;;8.71;100.00
61742;BME280;47650;49.848;9.620;2024-03-23T03:14:38;98569.13;;;9.00;100.00
61742;BME280;47650;49.848;9.620;2024-03-23T03:17:05;98567.16;;;9.10;100.00
61742;BME280;47650;49.848;9.620;2024-03-23T03:19:31;98559.22;;;9.18;100.00
61742;BME280;47650;49.848;9.620;2024-03-23T03:21:58;98555.63;;;9.28;100.00
61742;BME280;47650;49.848;9.620;2024-03-23T03:24:23;98538.06;;;9.18;100.00
61742;BME280;47650;49.848;9.620;2024-03-23T03:26:51;98540.06;;;9.25;100.00
61742;BME280;47650;49.848;9.620;2024-03-23T03:29:17;98548.66;;;9.27;100.00
61742;BME280;47650;49.848;9.620;2024-03-23T03:31:43;98550.31;;;9.19;100.00
61742;BME280;47650;49.848;9.620;2024-03-23T03:34:10;98558.91;;;9.21;100.00
61742;BME280;47650;49.848;9.620;2024-03-23T03:36:37;98541.06;;;9.23;100.00
61742;BME280;47650;49.848;9.620;2024-03-23T03:39:02;98549.00;;;9.23;100.00
61742;BME280;47650;49.848;9.620;2024-03-23T03:41:28;98563.97;;;8.90;100.00
61742;BME280;47650;49.848;9.620;2024-03-23T03:43:54;98536.25;;;8.34;100.00
61742;BME280;47650;49.848;9.620;2024-03-23T03:46:20;98550.84;;;8.72;100.00
61742;BME280;47650;49.848;9.620;2024-03-23T03:48:47;98470.94;;;8.36;100.00
61742;BME280;47650;49.848;9.620;2024-03-23T03:51:15;98511.53;;;8.69;100.00
61742;BME280;47650;49.848;9.620;2024-03-23T03:53:40;98520.50;;;8.84;100.00
61742;BME280;47650;49.848;9.620;2024-03-23T03:56:06;98481.38;;;8.45;100.00
61742;BME280;47650;49.848;9.620;2024-03-23T03:58:32;98537.34;;;8.83;100.00
61742;BME280;47650;49.848;9.620;2024-03-23T04:00:57;98529.09;;;8.87;100.00
61742;BME280;47650;49.848;9.620;2024-03-23T04:03:22;98528.44;;;8.84;100.00
61742;BME280;47650;49.848;9.620;2024-03-23T04:05:55;98517.78;;;8.68;100.00
61742;BME280;47650;49.848;9.620;2024-03-23T04:08:21;98529.84;;;8.36;100.00
61742;BME280;47650;49.848;9.620;2024-03-23T04:10:48;98507.13;;;8.43;100.00
61742;BME280;47650;49.848;9.620;2024-03-23T04:13:13;98479.53;;;8.38;100.00
61742;BME280;47650;49.848;9.620;2024-03-23T04:15:39;98488.03;;;8.50;100.00
61742;BME280;47650;49.848;9.620;2024-03-23T04:18:04;98483.66;;;8.40;100.00
61742;BME280;47650;49.848;9.620;2024-03-23T04:20:31;98485.88;;;8.27;100.00
61742;BME280;47650;49.848;9.620;2024-03-23T04:22:57;98459.19;;;7.69;100.00
61742;BME280;47650;49.848;9.620;2024-03-23T04:25:23;98449.16;;;7.73;100.00
61742;BME280;47650;49.848;9.620;2024-03-23T04:27:50;98492.94;;;8.18;100.00
61742;BME280;47650;49.848;9.620;2024-03-23T04:30:15;98474.28;;;8.12;100.00
61742;BME280;47650;49.848;9.620;2024-03-23T04:32:41;98476.28;;;8.18;100.00
61742;BME280;47650;49.848;9.620;2024-03-23T04:35:07;98491.53;;;8.32;100.00
61742;BME280;47650;49.848;9.620;2024-03-23T04:37:37;98478.50;;;8.31;100.00
61742;BME280;47650;49.848;9.620;2024-03-23T04:40:04;98441.25;;;8.07;100.00
61742;BME280;47650;49.848;9.620;2024-03-23T04:42:31;98487.59;;;8.36;100.00
61742;BME280;47650;49.848;9.620;2024-03-23T04:44:56;98477.47;;;8.23;100.00
61742;BME280;47650;49.848;9.620;2024-03-23T04:47:23;98478.66;;;8.29;100.00
61742;BME280;47650;49.848;9.620;2024-03-23T04:49:49;98462.50;;;8.40;100.00
61742;BME280;47650;49.848;9.620;2024-03-23T04:52:16;98436.41;;;8.29;100.00
61742;BME280;47650;49.848;9.620;2024-03-23T04:54:42;98435.09;;;8.33;100.00
61742;BME280;47650;49.848;9.620;2024-03-23T04:57:08;98479.13;;;8.24;100.00
61742;BME280;47650;49.848;9.620;2024-03-23T04:59:35;98457.81;;;8.18;100.00
61742;BME280;47650;49.848;9.620;2024-03-23T05:02:03;98464.50;;;8.38;100.00
61742;BME280;47650;49.848;9.620;2024-03-23T05:04:29;98413.34;;;7.97;100.00
61742;BME280;47650;49.848;9.620;2024-03-23T05:06:55;98462.16;;;8.35;100.00
61742;BME280;47650;49.848;9.620;2024-03-23T05:09:22;98467.50;;;8.43;100.00
61742;BME280;47650;49.848;9.620;2024-03-23T05:11:47;98473.72;;;8.34;100.00
61742;BME280;47650;49.848;9.620;2024-03-23T05:14:18;98426.44;;;8.15;100.00
61742;BME280;47650;49.848;9.620;2024-03-23T05:16:44;98449.63;;;8.29;100.00
61742;BME280;47650;49.848;9.620;2024-03-23T05:19:11;98447.94;;;8.62;100.00
61742;BME280;47650;49.848;9.620;2024-03-23T05:21:37;98448.47;;;8.91;100.00
61742;BME280;47650;49.848;9.620;2024-03-23T05:24:02;98433.94;;;9.11;100.00
61742;BME280;47650;49.848;9.620;2024-03-23T05:26:28;98431.13;;;9.37;100.00
61742;BME280;47650;49.848;9.620;2024-03-23T05:28:53;98430.59;;;9.58;100.00
61742;BME280;47650;49.848;9.620;2024-03-23T05:31:25;98448.22;;;9.99;100.00
61742;BME280;47650;49.848;9.620;2024-03-23T05:33:53;98451.34;;;10.11;100.00
61742;BME280;47650;49.848;9.620;2024-03-23T05:36:18;98448.41;;;10.45;100.00
61742;BME280;47650;49.848;9.620;2024-03-23T05:38:44;98436.56;;;10.33;100.00
61742;BME280;47650;49.848;9.620;2024-03-23T05:41:11;98457.84;;;10.48;100.00
61742;BME280;47650;49.848;9.620;2024-03-23T05:43:37;98461.88;;;10.67;100.00
61742;BME280;47650;49.848;9.620;2024-03-23T05:46:02;98472.44;;;10.44;100.00
61742;BME280;47650;49.848;9.620;2024-03-23T05:48:32;98454.38;;;10.47;100.00
61742;BME280;47650;49.848;9.620;2024-03-23T05:50:59;98491.50;;;10.39;100.00
61742;BME280;47650;49.848;9.620;2024-03-23T05:53:26;98518.50;;;10.26;100.00
61742;BME280;47650;49.848;9.620;2024-03-23T05:55:51;98561.59;;;10.04;100.00
61742;BME280;47650;49.848;9.620;2024-03-23T05:58:25;98539.94;;;9.59;100.00
61742;BME280;47650;49.848;9.620;2024-03-23T06:00:57;98534.81;;;9.49;100.00
61742;BME280;47650;49.848;9.620;2024-03-23T06:03:22;98575.16;;;9.35;100.00
61742;BME280;47650;49.848;9.620;2024-03-23T06:05:49;98554.94;;;9.17;100.00
61742;BME280;47650;49.848;9.620;2024-03-23T06:08:14;98532.59;;;9.03;100.00
61742;BME280;47650;49.848;9.620;2024-03-23T06:10:42;98540.47;;;8.87;100.00
61742;BME280;47650;49.848;9.620;2024-03-23T06:13:09;98540.44;;;8.71;100.00
61742;BME280;47650;49.848;9.620;2024-03-23T06:15:34;98538.53;;;8.97;100.00
61742;BME280;47650;49.848;9.620;2024-03-23T06:18:06;98548.88;;;8.74;100.00
61742;BME280;47650;49.848;9.620;2024-03-23T06:20:34;98533.13;;;8.64;100.00
61742;BME280;47650;49.848;9.620;2024-03-23T06:23:03;98569.66;;;8.69;100.00
61742;BME280;47650;49.848;9.620;2024-03-23T06:25:29;98570.69;;;8.76;100.00
61742;BME280;47650;49.848;9.620;2024-03-23T06:27:56;98600.88;;;8.65;100.00
61742;BME280;47650;49.848;9.620;2024-03-23T06:30:23;98594.69;;;8.31;100.00
61742;BME280;47650;49.848;9.620;2024-03-23T06:32:48;98617.31;;;8.33;100.00
61742;BME280;47650;49.848;9.620;2024-03-23T06:35:14;98633.97;;;8.07;100.00
61742;BME280;47650;49.848;9.620;2024-03-23T06:37:39;98563.81;;;7.79;100.00
61742;BME280;47650;49.848;9.620;2024-03-23T06:40:07;98627.06;;;7.88;100.00
61742;BME280;47650;49.848;9.620;2024-03-23T06:42:36;98645.00;;;7.85;100.00
61742;BME280;47650;49.848;9.620;2024-03-23T06:45:03;98654.22;;;7.81;100.00
61742;BME280;47650;49.848;9.620;2024-03-23T06:47:30;98619.16;;;7.70;100.00
61742;BME280;47650;49.848;9.620;2024-03-23T06:49:57;98663.41;;;7.95;100.00
61742;BME280;47650;49.848;9.620;2024-03-23T06:52:23;98671.91;;;7.70;100.00
61742;BME280;47650;49.848;9.620;2024-03-23T06:54:49;98666.47;;;7.54;100.00
61742;BME280;47650;49.848;9.620;2024-03-23T06:57:14;98680.66;;;7.53;100.00
61742;BME280;47650;49.848;9.620;2024-03-23T06:59:41;98722.84;;;7.53;100.00
61742;BME280;47650;49.848;9.620;2024-03-23T07:02:06;98730.38;;;7.48;100.00
61742;BME280;47650;49.848;9.620;2024-03-23T07:04:36;98745.25;;;7.67;100.00
61742;BME280;47650;49.848;9.620;2024-03-23T07:07:02;98747.56;;;7.52;100.00
61742;BME280;47650;49.848;9.620;2024-03-23T07:09:29;98746.66;;;7.61;100.00
61742;BME280;47650;49.848;9.620;2024-03-23T07:11:59;98739.13;;;7.66;100.00
61742;BME280;47650;49.848;9.620;2024-03-23T07:14:27;98738.50;;;8.00;100.00
61742;BME280;47650;49.848;9.620;2024-03-23T07:17:00;98782.63;;;7.90;100.00
61742;BME280;47650;49.848;9.620;2024-03-23T07:19:27;98774.03;;;7.88;100.00
61742;BME280;47650;49.848;9.620;2024-03-23T07:21:53;98769.38;;;8.18;100.00
61742;BME280;47650;49.848;9.620;2024-03-23T07:24:18;98778.53;;;7.78;100.00
61742;BME280;47650;49.848;9.620;2024-03-23T07:26:45;98764.69;;;8.12;100.00
61742;BME280;47650;49.848;9.620;2024-03-23T07:29:10;98791.63;;;7.69;100.00
61742;BME280;47650;49.848;9.620;2024-03-23T07:31:36;98818.28;;;7.66;100.00
61742;BME280;47650;49.848;9.620;2024-03-23T07:34:01;98822.00;;;8.01;100.00
61742;BME280;47650;49.848;9.620;2024-03-23T07:36:26;98826.69;;;8.07;100.00
61742;BME280;47650;49.848;9.620;2024-03-23T07:38:52;98833.56;;;7.72;100.00
61742;BME280;47650;49.848;9.620;2024-03-23T07:41:19;98841.06;;;7.67;100.00
61742;BME280;47650;49.848;9.620;2024-03-23T07:43:48;98747.16;;;7.19;100.00
61742;BME280;47650;49.848;9.620;2024-03-23T07:46:15;98859.28;;;7.61;100.00
61742;BME280;47650;49.848;9.620;2024-03-23T07:48:42;98869.88;;;7.51;100.00
61742;BME280;47650;49.848;9.620;2024-03-23T07:51:16;98869.53;;;7.74;100.00
61742;BME280;47650;49.848;9.620;2024-03-23T07:53:43;98871.75;;;7.68;100.00
61742;BME280;47650;49.848;9.620;2024-03-23T07:56:12;98875.75;;;7.72;100.00
61742;BME280;47650;49.848;9.620;2024-03-23T07:58:39;98894.91;;;8.30;100.00
61742;BME280;47650;49.848;9.620;2024-03-23T08:01:12;98906.53;;;8.47;100.00
61742;BME280;47650;49.848;9.620;2024-03-23T08:03:39;98907.88;;;8.23;100.00
61742;BME280;47650;49.848;9.620;2024-03-23T08:08:34;98905.72;;;8.37;100.00
61742;BME280;47650;49.848;9.620;2024-03-23T08:10:59;98919.59;;;8.39;100.00
61742;BME280;47650;49.848;9.620;2024-03-23T08:13:26;98924.44;;;8.25;100.00
61742;BME280;47650;49.848;9.620;2024-03-23T08:15:59;98934.78;;;8.09;100.00
61742;BME280;47650;49.848;9.620;2024-03-23T08:18:26;98953.91;;;7.83;100.00
61742;BME280;47650;49.848;9.620;2024-03-23T08:21:06;98937.03;;;8.04;100.00
61742;BME280;47650;49.848;9.620;2024-03-23T08:23:43;98968.94;;;7.73;100.00
61742;BME280;47650;49.848;9.620;2024-03-23T08:26:10;98979.28;;;7.47;100.00
61742;BME280;47650;49.848;9.620;2024-03-23T08:28:39;98970.47;;;7.76;100.00
61742;BME280;47650;49.848;9.620;2024-03-23T08:31:10;98978.63;;;8.29;100.00
61742;BME280;47650;49.848;9.620;2024-03-23T08:33:37;98989.03;;;7.94;100.00
61742;BME280;47650;49.848;9.620;2024-03-23T08:36:05;98993.31;;;8.32;100.00
61742;BME280;47650;49.848;9.620;2024-03-23T08:38:33;98981.78;;;8.05;100.00
61742;BME280;47650;49.848;9.620;2024-03-23T08:41:02;98982.75;;;8.32;100.00
61742;BME280;47650;49.848;9.620;2024-03-23T08:43:28;98986.94;;;8.44;100.00
61742;BME280;47650;49.848;9.620;2024-03-23T08:48:31;98998.22;;;9.98;84.56
61742;BME280;47650;49.848;9.620;2024-03-23T08:51:03;99004.31;;;11.60;75.40
61742;BME280;47650;49.848;9.620;2024-03-23T08:53:29;98955.91;;;12.22;69.98
61742;BME280;47650;49.848;9.620;2024-03-23T08:55:56;99019.09;;;12.43;63.45
61742;BME280;47650;49.848;9.620;2024-03-23T08:58:23;98997.97;;;11.28;71.26
61742;BME280;47650;49.848;9.620;2024-03-23T09:00:49;99018.19;;;12.19;65.20
61742;BME280;47650;49.848;9.620;2024-03-23T09:03:16;99033.81;;;11.24;69.61
61742;BME280;47650;49.848;9.620;2024-03-23T09:05:42;99038.88;;;13.66;60.72
61742;BME280;47650;49.848;9.620;2024-03-23T09:08:07;99034.97;;;12.68;62.45
61742;BME280;47650;49.848;9.620;2024-03-23T09:10:38;99036.63;;;12.21;64.97
61742;BME280;47650;49.848;9.620;2024-03-23T09:13:04;99057.06;;;11.46;69.06
61742;BME280;47650;49.848;9.620;2024-03-23T09:15:29;99068.72;;;10.00;75.60
61742;BME280;47650;49.848;9.620;2024-03-23T09:17:54;99051.41;;;10.31;76.48
61742;BME280;47650;49.848;9.620;2024-03-23T09:20:19;99061.94;;;10.05;79.93
61742;BME280;47650;49.848;9.620;2024-03-23T09:22:45;99060.09;;;9.97;76.55
61742;BME280;47650;49.848;9.620;2024-03-23T09:25:12;99041.91;;;10.03;78.41
61742;BME280;47650;49.848;9.620;2024-03-23T09:27:38;99072.78;;;9.68;74.88
61742;BME280;47650;49.848;9.620;2024-03-23T09:30:04;99070.72;;;9.62;73.26
61742;BME280;47650;49.848;9.620;2024-03-23T09:32:30;99083.88;;;9.35;74.29
61742;BME280;47650;49.848;9.620;2024-03-23T09:34:55;99092.31;;;8.75;80.11
61742;BME280;47650;49.848;9.620;2024-03-23T09:37:20;99073.94;;;8.74;83.23
61742;BME280;47650;49.848;9.620;2024-03-23T09:39:45;99087.44;;;8.43;88.74
61742;BME280;47650;49.848;9.620;2024-03-23T09:42:12;99110.19;;;7.87;92.77
61742;BME280;47650;49.848;9.620;2024-03-23T09:44:37;99103.97;;;7.68;100.00
61742;BME280;47650;49.848;9.620;2024-03-23T09:47:03;99094.22;;;7.59;100.00
61742;BME280;47650;49.848;9.620;2024-03-23T09:49:30;99088.47;;;8.13;100.00
61742;BME280;47650;49.848;9.620;2024-03-23T09:51:55;99095.69;;;9.41;90.41
61742;BME280;47650;49.848;9.620;2024-03-23T09:54:23;99091.03;;;11.35;79.45
61742;BME280;47650;49.848;9.620;2024-03-23T09:56:48;99072.97;;;12.85;64.71
61742;BME280;47650;49.848;9.620;2024-03-23T09:59:13;98996.19;;;15.15;59.03
61742;BME280;47650;49.848;9.620;2024-03-23T10:01:40;99038.06;;;13.65;56.30
61742;BME280;47650;49.848;9.620;2024-03-23T10:04:05;99071.31;;;12.28;61.26
61742;BME280;47650;49.848;9.620;2024-03-23T10:06:30;99082.81;;;11.79;59.53
61742;BME280;47650;49.848;9.620;2024-03-23T10:08:57;99057.28;;;15.46;51.89
61742;BME280;47650;49.848;9.620;2024-03-23T10:11:29;99055.81;;;14.26;50.54
61742;BME280;47650;49.848;9.620;2024-03-23T10:13:55;99038.97;;;11.42;55.31
61742;BME280;47650;49.848;9.620;2024-03-23T10:16:22;99081.97;;;12.19;53.73
61742;BME280;47650;49.848;9.620;2024-03-23T10:18:48;99073.31;;;12.26;54.05
61742;BME280;47650;49.848;9.620;2024-03-23T10:21:15;99077.78;;;11.43;52.76
61742;BME280;47650;49.848;9.620;2024-03-23T10:23:43;99089.72;;;11.47;55.58
61742;BME280;47650;49.848;9.620;2024-03-23T10:26:20;99073.22;;;10.94;55.43
61742;BME280;47650;49.848;9.620;2024-03-23T10:29:00;99084.53;;;10.35;55.62
61742;BME280;47650;49.848;9.620;2024-03-23T10:31:30;99053.94;;;13.27;48.83
61742;BME280;47650;49.848;9.620;2024-03-23T10:33:57;99068.53;;;12.77;46.72
61742;BME280;47650;49.848;9.620;2024-03-23T10:36:23;98997.66;;;15.39;43.05
61742;BME280;47650;49.848;9.620;2024-03-23T10:38:53;99045.44;;;14.31;42.76
61742;BME280;47650;49.848;9.620;2024-03-23T10:41:19;99043.59;;;14.61;43.15
61742;BME280;47650;49.848;9.620;2024-03-23T10:43:45;99017.16;;;15.18;41.13
61742;BME280;47650;49.848;9.620;2024-03-23T10:46:11;99049.19;;;13.69;43.41
61742;BME280;47650;49.848;9.620;2024-03-23T10:48:37;99026.56;;;14.77;42.31
61742;BME280;47650;49.848;9.620;2024-03-23T10:51:03;99047.91;;;13.80;44.36
61742;BME280;47650;49.848;9.620;2024-03-23T10:53:32;99042.59;;;13.80;44.41
61742;BME280;47650;49.848;9.620;2024-03-23T10:55:59;99046.19;;;12.38;45.06
61742;BME280;47650;49.848;9.620;2024-03-23T10:58:46;99037.28;;;13.25;44.01
61742;BME280;47650;49.848;9.620;2024-03-23T11:01:14;99050.59;;;13.80;43.66
61742;BME280;47650;49.848;9.620;2024-03-23T11:03:45;99030.66;;;13.52;42.73
61742;BME280;47650;49.848;9.620;2024-03-23T11:06:34;99043.56;;;13.09;42.25
61742;BME280;47650;49.848;9.620;2024-03-23T11:08:59;99013.34;;;13.25;41.28
61742;BME280;47650;49.848;9.620;2024-03-23T11:11:26;99040.38;;;13.14;41.34
61742;BME280;47650;49.848;9.620;2024-03-23T11:13:53;99045.13;;;14.11;40.17
61742;BME280;47650;49.848;9.620;2024-03-23T11:16:25;99031.00;;;13.87;40.73
61742;BME280;47650;49.848;9.620;2024-03-23T11:19:37;99031.41;;;13.15;40.92
61742;BME280;47650;49.848;9.620;2024-03-23T11:22:04;99057.22;;;12.19;40.99
61742;BME280;47650;49.848;9.620;2024-03-23T11:24:31;99041.66;;;11.91;42.80
61742;BME280;47650;49.848;9.620;2024-03-23T11:27:02;99033.50;;;12.01;42.34
61742;BME280;47650;49.848;9.620;2024-03-23T11:29:29;98998.38;;;10.74;44.08
61742;BME280;47650;49.848;9.620;2024-03-23T11:31:56;99037.13;;;11.18;43.43
61742;BME280;47650;49.848;9.620;2024-03-23T11:34:22;99035.47;;;10.58;45.64
61742;BME280;47650;49.848;9.620;2024-03-23T11:36:48;99041.69;;;10.40;46.14
61742;BME280;47650;49.848;9.620;2024-03-23T11:39:18;98979.28;;;10.54;46.38
61742;BME280;47650;49.848;9.620;2024-03-23T11:41:50;99029.34;;;11.82;45.01
61742;BME280;47650;49.848;9.620;2024-03-23T11:44:18;99035.13;;;11.12;44.29
61742;BME280;47650;49.848;9.620;2024-03-23T11:46:43;99024.50;;;11.28;46.23
61742;BME280;47650;49.848;9.620;2024-03-23T11:49:26;99011.59;;;12.86;43.68
61742;BME280;47650;49.848;9.620;2024-03-23T11:51:56;99013.88;;;14.20;39.75
61742;BME280;47650;49.848;9.620;2024-03-23T11:54:23;99021.81;;;12.66;40.76
61742;BME280;47650;49.848;9.620;2024-03-23T11:56:56;99024.19;;;11.56;43.29
61742;BME280;47650;49.848;9.620;2024-03-23T11:59:35;99005.31;;;11.42;44.17
61742;BME280;47650;49.848;9.620;2024-03-23T12:02:06;99035.69;;;10.81;46.05
61742;BME280;47650;49.848;9.620;2024-03-23T12:04:31;99033.47;;;9.99;47.08
61742;BME280;47650;49.848;9.620;2024-03-23T12:07:13;99033.91;;;9.94;48.35
61742;BME280;47650;49.848;9.620;2024-03-23T12:09:40;99038.84;;;9.89;49.82
61742;BME280;47650;49.848;9.620;2024-03-23T12:12:10;99040.34;;;10.18;49.35
61742;BME280;47650;49.848;9.620;2024-03-23T12:14:36;99051.31;;;10.23;50.99
61742;BME280;47650;49.848;9.620;2024-03-23T12:17:14;99083.06;;;8.89;67.96
61742;BME280;47650;49.848;9.620;2024-03-23T12:19:41;99088.44;;;8.22;79.33
61742;BME280;47650;49.848;9.620;2024-03-23T12:22:10;99082.72;;;8.27;83.48
61742;BME280;47650;49.848;9.620;2024-03-23T12:24:35;99092.50;;;8.64;81.64
61742;BME280;47650;49.848;9.620;2024-03-23T12:27:04;99090.66;;;8.74;80.96
61742;BME280;47650;49.848;9.620;2024-03-23T12:29:33;99094.16;;;8.65;78.55
61742;BME280;47650;49.848;9.620;2024-03-23T12:32:02;99087.19;;;10.70;69.08
61742;BME280;47650;49.848;9.620;2024-03-23T12:34:28;99067.31;;;12.88;58.24
61742;BME280;47650;49.848;9.620;2024-03-23T12:36:54;98996.97;;;12.51;52.62
61742;BME280;47650;49.848;9.620;2024-03-23T12:39:19;99046.97;;;14.25;46.93
61742;BME280;47650;49.848;9.620;2024-03-23T12:41:49;99052.88;;;14.80;45.96
61742;BME280;47650;49.848;9.620;2024-03-23T12:44:15;99042.03;;;14.67;42.86
61742;BME280;47650;49.848;9.620;2024-03-23T12:46:41;98995.91;;;16.38;41.73
61742;BME280;47650;49.848;9.620;2024-03-23T12:49:07;99025.94;;;17.43;39.46
61742;BME280;47650;49.848;9.620;2024-03-23T12:51:32;99036.16;;;15.94;39.84
61742;BME280;47650;49.848;9.620;2024-03-23T12:53:58;99021.44;;;17.70;36.06
61742;BME280;47650;49.848;9.620;2024-03-23T12:56:23;98945.91;;;14.97;38.96
61742;BME280;47650;49.848;9.620;2024-03-23T12:58:48;99006.63;;;16.38;37.83
61742;BME280;47650;49.848;9.620;2024-03-23T13:01:19;98961.00;;;15.33;36.40
61742;BME280;47650;49.848;9.620;2024-03-23T13:03:49;98987.19;;;16.22;35.79
61742;BME280;47650;49.848;9.620;2024-03-23T13:06:16;99001.94;;;15.61;35.90
61742;BME280;47650;49.848;9.620;2024-03-23T13:08:44;98991.94;;;17.70;35.98
61742;BME280;47650;49.848;9.620;2024-03-23T13:11:15;98993.38;;;17.53;34.66
61742;BME280;47650;49.848;9.620;2024-03-23T13:13:42;98997.03;;;17.12;34.98
61742;BME280;47650;49.848;9.620;2024-03-23T13:16:08;98983.00;;;18.36;31.99
61742;BME280;47650;49.848;9.620;2024-03-23T13:18:33;98998.25;;;14.46;35.59
61742;BME280;47650;49.848;9.620;2024-03-23T13:20:59;98988.91;;;16.02;34.14
61742;BME280;47650;49.848;9.620;2024-03-23T13:23:25;98931.03;;;15.87;35.27
61742;BME280;47650;49.848;9.620;2024-03-23T13:25:54;99005.63;;;15.17;36.11
61742;BME280;47650;49.848;9.620;2024-03-23T13:28:23;98986.31;;;17.05;32.94
61742;BME280;47650;49.848;9.620;2024-03-23T13:33:17;98980.22;;;15.43;34.20
61742;BME280;47650;49.848;9.620;2024-03-23T13:35:49;98974.31;;;14.53;35.14
61742;BME280;47650;49.848;9.620;2024-03-23T13:38:15;98989.84;;;14.79;36.11
61742;BME280;47650;49.848;9.620;2024-03-23T13:40:58;98998.50;;;14.52;37.55
61742;BME280;47650;49.848;9.620;2024-03-23T13:43:24;99005.97;;;12.81;41.16
61742;BME280;47650;49.848;9.620;2024-03-23T13:45:54;98988.78;;;13.61;40.71
61742;BME280;47650;49.848;9.620;2024-03-23T13:48:21;98975.97;;;14.39;39.12
61742;BME280;47650;49.848;9.620;2024-03-23T13:50:56;98987.09;;;13.22;41.62
61742;BME280;47650;49.848;9.620;2024-03-23T13:53:22;98955.53;;;14.76;39.04
61742;BME280;47650;49.848;9.620;2024-03-23T13:55:49;98984.03;;;16.12;37.74
61742;BME280;47650;49.848;9.620;2024-03-23T13:58:15;98967.66;;;16.22;36.89
61742;BME280;47650;49.848;9.620;2024-03-23T14:00:40;98944.75;;;15.06;37.20